Wednesday, October 17, 2018, 4:21 AM EDT
Back to Local

KABE, Lehigh Valley International Airport

Location: Allentown, PA, United States Lat: 40.65
Local Time: 4:21 AM EDT ( 8:21 GMT) Lon: -75.45
Time Zone: US/Eastern Elev: 393 ft

Show me the last for .
Show Decoded

2018-10-17 03:51 METAR KABE 170751Z AUTO 23005KT 10SM CLR 06/03 A3002 RMK AO2 SLP168 T00610033 $
                 =
2018-10-17 02:51 METAR KABE 170651Z AUTO 00000KT 10SM CLR 05/03 A3003 RMK AO2 SLP172 T00500028 $
                 =
2018-10-17 01:51 METAR KABE 170551Z 24003KT 10SM CLR 07/03 A3005 RMK AO2 SLP178 T00670028 10094
                 20050 58006 $ =
2018-10-16 23:51 METAR KABE 170351Z 25003KT 10SM CLR 07/03 A3006 RMK AO2 SLP182 T00670033 $ =
2018-10-16 22:51 METAR KABE 170251Z 00000KT 10SM CLR 07/04 A3007 RMK AO2 SLP184 T00720039 56004 $
                 =
2018-10-16 21:51 METAR KABE 170151Z 23006KT 10SM CLR 07/03 A3007 RMK AO2 SLP185 T00720028 $ =
2018-10-16 20:51 METAR KABE 170051Z 24005KT 10SM CLR 08/03 A3008 RMK AO2 SLP186 T00780028 $ =
2018-10-16 19:51 METAR KABE 162351Z 24005KT 10SM CLR 09/02 A3008 RMK AO2 SLP188 T00890022 10133
                 20089 $ =
2018-10-16 18:51 METAR KABE 162251Z 25007KT 10SM CLR 10/02 A3007 RMK AO2 SLP185 T01000017 $ =
2018-10-16 17:51 METAR KABE 162151Z 23008KT 10SM CLR 11/02 A3008 RMK AO2 SLP186 T01110017 $ =
2018-10-16 16:51 METAR KABE 162051Z AUTO 24009KT 10SM CLR 12/02 A3007 RMK AO2 SLP184 T01220017
                 56013 =
2018-10-16 15:51 METAR KABE 161951Z AUTO 23008KT 10SM CLR 13/02 A3008 RMK AO2 SLP186 T01280017 =
2018-10-16 14:51 METAR KABE 161851Z 26008KT 10SM CLR 12/02 A3009 RMK AO2 SLP191 T01220017 =
2018-10-16 13:51 METAR KABE 161751Z 26005KT 10SM CLR 12/01 A3011 RMK AO2 SLP197 T01220006 10122
                 20072 58027 =
2018-10-16 12:51 METAR KABE 161651Z VRB04KT 10SM CLR 12/00 A3015 RMK AO2 SLP210 T01170000 =
2018-10-16 11:51 METAR KABE 161551Z 33007KT 10SM CLR 11/00 A3017 RMK AO2 SLP217 T01060000 =
2018-10-16 10:51 METAR KABE 161451Z VRB06KT 10SM CLR 10/00 A3019 RMK AO2 SLP225 T01000000 50002 =
2018-10-16 09:51 METAR KABE 161351Z 30010KT 10SM CLR 08/M01 A3021 RMK AO2 SLP231 T00831011 =
2018-10-16 08:51 METAR KABE 161251Z 33009KT 10SM CLR 08/M01 A3021 RMK AO2 SLP229 T00831006 =
2018-10-16 07:51 METAR KABE 161151Z 31005KT 10SM CLR 07/00 A3019 RMK AO2 SLP223 70015 T00720000
                 10139 20067 51030 =
2018-10-16 06:51 METAR KABE 161051Z 10SM CLR 08/01 A3017 RMK AO2 SLP216 T00780011 =
2018-10-16 05:51 METAR KABE 160951Z 33010KT 10SM FEW038 09/02 A3014 RMK AO2 SLP206 T00940017 =
2018-10-16 04:51 METAR KABE 160851Z 30012G20KT 10SM CLR 11/02 A3010 RMK AO2 SLP192 T01110017
                 53019 =

Support USWX by starting your Amazon purchase here.